Nathalie — OJLP — position and weather

sailwx.info

Track history (hours):
 
Tides and Currents Weather Stations Pressure Air Temp Water Temp Dewpoint Dewpoint Depression Visibility Wind Speed Wind Dir Waves Ship Positions

Nathalie

Last reported at 2017-Jun-28 08:31 UTC. Time now 2017-Jun-28 08:50 UTC.
Position N 58°51' E 021°24'.

Length 64 m; draft 2.5 m.

Type: Cargo ship. MMSI: 230987660.

Date/timePositionNaut miles runAvg speedWind from/ knotsBaromVisibWave heightAir tempDewpointWater temp
2017-Jun-28 08:31N 58°51' E 021°24'5 9.3
2017-Jun-28 08:00N 58°46' E 021°24'5 9.2
2017-Jun-28 07:30N 58°41' E 021°23'5 9.1
2017-Jun-28 07:00N 58°37' E 021°21'5 9.2
2017-Jun-28 06:30N 58°32' E 021°21'5 9.1
2017-Jun-28 06:00N 58°28' E 021°22'5 9.2
2017-Jun-28 05:30N 58°23' E 021°22'123 3.7
2017-Jun-26 20:41N 58°38' E 017°28'3 8.6
2017-Jun-26 20:20N 58°39' E 017°23'3 8.7
2017-Jun-26 19:58N 58°40' E 017°17'4 8.4
2017-Jun-26 19:30N 58°41' E 017°10'1 0.0
2017-Jun-25 22:12N 58°40' E 017°09'1 3.6
2017-Jun-25 21:58N 58°41' E 017°10'51 7.4
2017-Jun-25 15:04N 59°09' E 018°32'1 9.0
2017-Jun-25 15:00N 59°10' E 018°33'10 8.8
2017-Jun-25 13:51N 59°18' E 018°45'3 8.9
2017-Jun-25 13:31N 59°20' E 018°48'5 9.1
2017-Jun-25 13:01N 59°24' E 018°53'4 8.9
2017-Jun-25 12:31N 59°27' E 018°59'4 8.9
2017-Jun-25 12:01N 59°30' E 019°05'4 8.8
2017-Jun-25 11:31N 59°35' E 019°08'4 9.0
2017-Jun-25 11:01N 59°39' E 019°10'4 8.9
2017-Jun-25 10:31N 59°44' E 019°10'4 8.9
2017-Jun-25 10:01N 59°45' E 019°18'4 9.0
2017-Jun-25 09:31N 59°48' E 019°26'4 8.8
2017-Jun-25 09:00N 59°50' E 019°34'4 8.8
2017-Jun-25 08:31N 59°52' E 019°41'5 9.0
2017-Jun-25 08:01N 59°54' E 019°49'5 9.1
2017-Jun-25 07:30N 59°57' E 019°57'4 9.0
2017-Jun-25 07:00N 59°58' E 020°05'4 8.8
2017-Jun-25 06:31N 59°59' E 020°14'5 9.2
2017-Jun-25 06:01N 60°03' E 020°20'4 7.9
2017-Jun-25 05:30N 60°05' E 020°26'4 8.4
2017-Jun-25 05:01N 60°07' E 020°33'4 8.4
2017-Jun-25 04:31N 60°06' E 020°41'5 9.2
2017-Jun-25 04:00N 60°05' E 020°50'5 9.3
2017-Jun-25 03:31N 60°02' E 020°57'5 9.0
2017-Jun-25 03:01N 60°00' E 021°06'5 9.4
2017-Jun-25 02:30N 59°57' E 021°12'5 9.2
2017-Jun-25 02:01N 59°53' E 021°19'4 8.8
2017-Jun-25 01:31N 59°51' E 021°27'5 9.2
2017-Jun-25 01:00N 59°51' E 021°36'5 9.1
2017-Jun-25 00:31N 59°52' E 021°45'5 9.2
2017-Jun-25 00:00N 59°52' E 021°54'5 9.3
2017-Jun-24 23:31N 59°53' E 022°03'5 9.3
2017-Jun-24 23:01N 59°53' E 022°12'5 9.4
2017-Jun-24 22:31N 59°53' E 022°22'4 8.6
2017-Jun-24 22:01N 59°54' E 022°30'5 9.0
2017-Jun-24 21:30N 59°55' E 022°39'5 9.5
2017-Jun-24 21:01N 59°53' E 022°48'4 7.5
2017-Jun-24 20:31N 59°50' E 022°52'3 6.9
2017-Jun-24 20:01N 59°47' E 022°56'4 8.1
2017-Jun-24 19:31N 59°45' E 023°03'4 7.5
2017-Jun-24 19:00N 59°42' E 023°08'3 6.4
2017-Jun-24 18:31N 59°41' E 023°14'3 6.8
2017-Jun-24 18:01N 59°42' E 023°21'4 8.1
2017-Jun-24 17:31N 59°43' E 023°28'4 8.7
2017-Jun-24 17:01N 59°44' E 023°37'4 8.9
2017-Jun-24 16:31N 59°45' E 023°45'5 9.1
2017-Jun-24 16:00N 59°47' E 023°53'5 9.1
2017-Jun-24 15:31N 59°48' E 024°02'5 9.1
2017-Jun-24 15:01N 59°51' E 024°09'9 8.9
2017-Jun-24 14:00N 59°59' E 024°17'4 8.5
2017-Jun-24 13:30N 60°03' E 024°21'2 3.5
2017-Jun-24 12:53N 60°05' E 024°23'0 0.0
2017-Jun-24 12:29N 60°05' E 024°23'0 0.0
2017-Jun-24 11:59N 60°05' E 024°23'0 0.0
2017-Jun-24 11:29N 60°05' E 024°23'0 0.0
2017-Jun-24 10:59N 60°05' E 024°23'0 0.0
2017-Jun-24 10:29N 60°05' E 024°23'0 0.0
2017-Jun-24 09:59N 60°05' E 024°23'0 0.0
2017-Jun-24 09:29N 60°05' E 024°23'0 0.0
2017-Jun-24 08:59N 60°05' E 024°23'0 0.0
2017-Jun-24 08:23N 60°05' E 024°23'0 0.0
2017-Jun-24 07:59N 60°05' E 024°23'0 0.0
2017-Jun-24 07:29N 60°05' E 024°23'0 0.0
2017-Jun-24 06:59N 60°05' E 024°23'0 0.0
2017-Jun-24 06:29N 60°05' E 024°23'0 0.0
2017-Jun-24 05:59N 60°05' E 024°23'0 0.0
2017-Jun-24 05:29N 60°05' E 024°23'0 0.0
2017-Jun-24 04:59N 60°05' E 024°23'0 0.0
2017-Jun-24 04:29N 60°05' E 024°23'0 0.0
2017-Jun-24 03:59N 60°05' E 024°23'0 0.0
2017-Jun-24 03:29N 60°05' E 024°23'0 0.0
2017-Jun-24 02:59N 60°05' E 024°23'0 0.0
2017-Jun-24 02:29N 60°05' E 024°23'0 0.0
2017-Jun-24 01:59N 60°05' E 024°23'0 0.0
2017-Jun-24 01:29N 60°05' E 024°23'0 0.0
2017-Jun-24 00:59N 60°05' E 024°23'0 0.0
2017-Jun-24 00:29N 60°05' E 024°23'0 0.0
2017-Jun-23 23:59N 60°05' E 024°23'0 0.0
2017-Jun-23 23:29N 60°05' E 024°23'0 0.0
2017-Jun-23 22:59N 60°05' E 024°23'0 0.0
2017-Jun-23 22:29N 60°05' E 024°23'0 0.0
2017-Jun-23 21:59N 60°05' E 024°23'0 0.0
2017-Jun-23 21:29N 60°05' E 024°23'0 0.0
2017-Jun-23 20:59N 60°05' E 024°23'0 0.0
2017-Jun-23 20:29N 60°05' E 024°23'0 0.0
2017-Jun-23 19:59N 60°05' E 024°23'0 0.0
2017-Jun-23 19:29N 60°05' E 024°23'0 0.0
2017-Jun-23 18:59N 60°05' E 024°23'0 0.0
2017-Jun-23 18:29N 60°05' E 024°23'0 0.0
2017-Jun-23 17:59N 60°05' E 024°23'0 0.0
2017-Jun-23 17:29N 60°05' E 024°23'0 0.0
2017-Jun-23 16:59N 60°05' E 024°23'0 0.0
2017-Jun-23 16:29N 60°05' E 024°23'0 0.0
2017-Jun-23 15:59N 60°05' E 024°23'0 0.0
2017-Jun-23 15:28N 60°05' E 024°23'0 0.0
2017-Jun-23 14:58N 60°05' E 024°23'0 0.0
2017-Jun-23 13:58N 60°05' E 024°23'0 0.0
2017-Jun-23 13:28N 60°05' E 024°23'0 0.0
2017-Jun-23 12:58N 60°05' E 024°23'0 0.0
2017-Jun-23 12:25N 60°05' E 024°23'0 0.0
2017-Jun-23 11:58N 60°05' E 024°23'0 0.0
2017-Jun-23 11:28N 60°05' E 024°23'0 0.0
2017-Jun-23 10:58N 60°05' E 024°23'0 0.0
2017-Jun-23 10:28N 60°05' E 024°23'0 0.0
2017-Jun-23 09:58N 60°05' E 024°23'0 0.0
2017-Jun-23 09:28N 60°05' E 024°23'0 0.0
2017-Jun-23 08:58N 60°05' E 024°23'0 0.0
2017-Jun-23 08:28N 60°05' E 024°23'0 0.0
2017-Jun-23 07:58N 60°05' E 024°23'0 0.0
2017-Jun-23 07:28N 60°05' E 024°23'0 0.0
2017-Jun-23 06:58N 60°05' E 024°23'0 0.0
2017-Jun-23 06:28N 60°05' E 024°23'0 0.0
2017-Jun-23 05:55N 60°05' E 024°23'0 0.0
2017-Jun-23 05:28N 60°05' E 024°23'0 0.0
2017-Jun-23 04:55N 60°05' E 024°23'0 0.0
2017-Jun-23 04:28N 60°05' E 024°23'0 0.0
2017-Jun-23 03:58N 60°05' E 024°23'0 0.0
2017-Jun-23 03:28N 60°05' E 024°23'0 0.0
2017-Jun-23 02:55N 60°05' E 024°23'0 0.0
2017-Jun-23 02:28N 60°05' E 024°23'0 0.0
2017-Jun-23 01:58N 60°05' E 024°23'0 0.0
2017-Jun-23 01:28N 60°05' E 024°23'0 0.0
2017-Jun-23 00:58N 60°05' E 024°23'0 0.0
2017-Jun-23 00:28N 60°05' E 024°23'0 0.0
2017-Jun-22 23:58N 60°05' E 024°23'0 0.0
2017-Jun-22 23:28N 60°05' E 024°23'0 0.0
2017-Jun-22 22:58N 60°05' E 024°23'0 0.0
2017-Jun-22 22:28N 60°05' E 024°23'0 0.0
2017-Jun-22 21:58N 60°05' E 024°23'0 0.0
2017-Jun-22 21:22N 60°05' E 024°23'0 0.0
2017-Jun-22 20:58N 60°05' E 024°23'0 0.0
2017-Jun-22 20:28N 60°05' E 024°23'0 0.0
2017-Jun-22 19:55N 60°05' E 024°23'0 0.0
2017-Jun-22 19:28N 60°05' E 024°23'0 0.0
2017-Jun-22 18:58N 60°05' E 024°23'0 0.0
2017-Jun-22 18:28N 60°05' E 024°23'0 0.0
2017-Jun-22 17:58N 60°05' E 024°23'0 0.0
2017-Jun-22 17:28N 60°05' E 024°23'0 0.0
2017-Jun-22 16:58N 60°05' E 024°23'0 0.0
2017-Jun-22 16:28N 60°05' E 024°23'0 0.0
2017-Jun-22 15:58N 60°05' E 024°23'0 0.0
2017-Jun-22 15:28N 60°05' E 024°23'0 0.0
2017-Jun-22 14:58N 60°05' E 024°23'0 0.0
2017-Jun-22 13:58N 60°05' E 024°23'0 0.0
2017-Jun-22 13:28N 60°05' E 024°23'0 0.0
2017-Jun-22 12:58N 60°05' E 024°23'0 0.0
2017-Jun-22 12:28N 60°05' E 024°23'0 0.0
2017-Jun-22 11:58N 60°05' E 024°23'0 0.0
2017-Jun-22 11:28N 60°05' E 024°23'0 0.0
2017-Jun-22 10:58N 60°05' E 024°23'0 0.0
2017-Jun-22 10:28N 60°05' E 024°23'0 0.0
2017-Jun-22 09:58N 60°05' E 024°23'0 0.0
2017-Jun-22 09:28N 60°05' E 024°23'0 0.0
2017-Jun-22 08:58N 60°05' E 024°23'0 0.0
2017-Jun-22 08:28N 60°05' E 024°23'0 0.0
2017-Jun-22 07:58N 60°05' E 024°23'0 0.0
2017-Jun-22 07:28N 60°05' E 024°23'0 0.0
2017-Jun-22 06:58N 60°05' E 024°23'0 0.0
2017-Jun-22 06:31N 60°05' E 024°23'0 0.0
2017-Jun-22 05:58N 60°05' E 024°23'0 0.0
2017-Jun-22 05:31N 60°05' E 024°23'0 0.0
2017-Jun-22 05:01N 60°05' E 024°23'0 0.0
2017-Jun-22 04:30N 60°05' E 024°23'0 0.0
2017-Jun-22 04:00N 60°05' E 024°23'0 0.0
2017-Jun-22 03:30N 60°05' E 024°23'0 0.0
2017-Jun-22 03:00N 60°05' E 024°23'0 0.0
2017-Jun-22 02:30N 60°05' E 024°23'0 0.0
2017-Jun-22 02:00N 60°05' E 024°23'0 0.0
2017-Jun-22 01:30N 60°05' E 024°23'0 0.0
2017-Jun-22 01:00N 60°05' E 024°23'0 0.0
2017-Jun-22 00:30N 60°05' E 024°23'0 0.0
2017-Jun-22 00:00N 60°05' E 024°23'0 0.0
2017-Jun-21 23:30N 60°05' E 024°23'0 0.0
2017-Jun-21 23:00N 60°05' E 024°23'0 0.0
2017-Jun-21 22:30N 60°05' E 024°23'0 0.0
2017-Jun-21 22:00N 60°05' E 024°23'0 0.0
2017-Jun-21 21:27N 60°05' E 024°23'0 0.0
2017-Jun-21 20:58N 60°05' E 024°23'0 0.0
2017-Jun-21 20:30N 60°05' E 024°23'0 0.0
2017-Jun-21 20:00N 60°05' E 024°23'0 0.0
2017-Jun-21 19:30N 60°05' E 024°23'0 0.0
2017-Jun-21 19:00N 60°05' E 024°23'0 0.0
2017-Jun-21 18:27N 60°05' E 024°23'0 0.0
2017-Jun-21 18:00N 60°05' E 024°23'0 0.0
2017-Jun-21 17:30N 60°05' E 024°23'0 0.0
2017-Jun-21 17:00N 60°05' E 024°23'0 0.1
2017-Jun-21 16:30N 60°05' E 024°23'0 0.0
2017-Jun-21 16:00N 60°05' E 024°23'0 0.0
2017-Jun-21 15:30N 60°05' E 024°23'0 0.0
2017-Jun-21 14:57N 60°05' E 024°23'0 0.0
2017-Jun-21 14:30N 60°05' E 024°23'0 0.0
2017-Jun-21 13:27N 60°05' E 024°23'0 0.0
2017-Jun-21 13:00N 60°05' E 024°23'0 0.0
2017-Jun-21 12:30N 60°05' E 024°23'0 0.0
2017-Jun-21 12:00N 60°05' E 024°23'0 0.0
2017-Jun-21 11:30N 60°05' E 024°23'0 0.0
2017-Jun-21 11:00N 60°05' E 024°23'0 0.0
2017-Jun-21 10:30N 60°05' E 024°23'0 0.0
2017-Jun-21 10:00N 60°05' E 024°23'0 0.0
2017-Jun-21 09:30N 60°05' E 024°23'0 0.0
2017-Jun-21 09:00N 60°05' E 024°23'0 0.0
2017-Jun-21 08:30N 60°05' E 024°23'0 0.0
2017-Jun-21 08:00N 60°05' E 024°23'0 0.0
2017-Jun-21 07:30N 60°05' E 024°23'0 0.0
2017-Jun-21 07:00N 60°05' E 024°23'0 0.0
2017-Jun-21 06:30N 60°05' E 024°23'0 0.0
2017-Jun-21 06:00N 60°05' E 024°23'0 0.0
2017-Jun-21 05:30N 60°05' E 024°23'0 0.0
2017-Jun-21 05:00N 60°05' E 024°23'0 0.0
2017-Jun-21 04:30N 60°05' E 024°23'0 0.0
2017-Jun-21 04:00N 60°05' E 024°23'0 0.0
2017-Jun-21 03:30N 60°05' E 024°23'0 0.0
2017-Jun-21 03:00N 60°05' E 024°23'0 0.0
2017-Jun-21 02:30N 60°05' E 024°23'0 0.0
2017-Jun-21 02:00N 60°05' E 024°23'0 0.0
2017-Jun-21 01:30N 60°05' E 024°23'0 0.0
2017-Jun-21 01:00N 60°05' E 024°23'0 0.0
2017-Jun-21 00:30N 60°05' E 024°23'0 0.0
2017-Jun-21 00:00N 60°05' E 024°23'0 0.0
2017-Jun-20 23:30N 60°05' E 024°23'0 0.0
2017-Jun-20 23:00N 60°05' E 024°23'0 0.0
2017-Jun-20 22:30N 60°05' E 024°23'0 0.0
2017-Jun-20 22:00N 60°05' E 024°23'0 0.0
2017-Jun-20 21:30N 60°05' E 024°23'0 0.0
2017-Jun-20 21:00N 60°05' E 024°23'0 0.0
2017-Jun-20 20:30N 60°05' E 024°23'0 0.0
2017-Jun-20 20:00N 60°05' E 024°23'0 0.0
2017-Jun-20 19:30N 60°05' E 024°23'0 0.0
2017-Jun-20 19:00N 60°05' E 024°23'0 0.0
2017-Jun-20 18:30N 60°05' E 024°23'0 0.0
2017-Jun-20 17:59N 60°05' E 024°23'0 0.0
2017-Jun-20 17:29N 60°05' E 024°23'0 0.0
2017-Jun-20 16:59N 60°05' E 024°23'0 0.1
2017-Jun-20 16:30N 60°05' E 024°22'3 6.8
2017-Jun-20 16:00N 60°02' E 024°19'4 8.4
2017-Jun-20 15:30N 59°58' E 024°16'4 7.4
2017-Jun-20 15:00N 59°55' E 024°13'3 6.8
2017-Jun-20 14:30N 59°52' E 024°10'7 6.7
2017-Jun-20 13:30N 59°46' E 024°01'3 7.0
2017-Jun-20 13:00N 59°44' E 023°57'3 6.9
2017-Jun-20 12:30N 59°41' E 023°53'3 6.9
2017-Jun-20 12:00N 59°38' E 023°48'4 7.1
2017-Jun-20 11:30N 59°36' E 023°44'4 7.2
2017-Jun-20 11:00N 59°33' E 023°39'4 7.6
2017-Jun-20 10:30N 59°30' E 023°35'4 7.5
2017-Jun-20 10:00N 59°27' E 023°30'4 7.4
2017-Jun-20 09:30N 59°24' E 023°26'4 7.8
2017-Jun-20 09:00N 59°21' E 023°21'4 7.8
2017-Jun-20 08:30N 59°18' E 023°16'4 7.9
2017-Jun-20 08:00N 59°15' E 023°11'4 8.1
2017-Jun-20 07:30N 59°12' E 023°06'4 8.1
2017-Jun-20 07:00N 59°08' E 023°03'4 8.3
2017-Jun-20 06:30N 59°04' E 023°03'40 8.5
2017-Jun-20 01:50N 58°27' E 023°32'3 8.8
2017-Jun-20 01:30N 58°25' E 023°34'4 8.8
2017-Jun-20 01:00N 58°21' E 023°37'4 8.8
2017-Jun-20 00:30N 58°16' E 023°41'5 8.9
2017-Jun-19 23:58N 58°12' E 023°44'4 8.8
2017-Jun-19 23:29N 58°08' E 023°47'4 8.8
2017-Jun-19 23:00N 58°04' E 023°49'28 1.6
2017-Jun-19 06:00N 58°23' E 024°29'0 0.0
2017-Jun-19 05:27N 58°23' E 024°29'0 0.0
2017-Jun-19 04:57N 58°23' E 024°29'0 0.0
2017-Jun-19 04:30N 58°23' E 024°29'0 0.0
2017-Jun-19 04:00N 58°23' E 024°29'0 0.0
2017-Jun-19 03:30N 58°23' E 024°29'0 0.0
2017-Jun-19 03:00N 58°23' E 024°29'0 0.0
2017-Jun-19 02:30N 58°23' E 024°29'  
Track history (hours):
 
Tides and Currents Weather Stations Pressure Air Temp Water Temp Dewpoint Dewpoint Depression Visibility Wind Speed Wind Dir Waves Ship Positions

Nathalie

Last reported at 2017-Jun-28 08:31 UTC. Time now 2017-Jun-28 08:50 UTC.
Position N 58°51' E 021°24'.

Length 64 m; draft 2.5 m.

Type: Cargo ship. MMSI: 230987660.

Date/timePositionNaut miles runAvg speedWind from/ knotsBaromVisibWave heightAir tempDewpointWater temp
2017-Jun-28 08:31N 58°51' E 021°24'5 9.3
2017-Jun-28 08:00N 58°46' E 021°24'5 9.2
2017-Jun-28 07:30N 58°41' E 021°23'5 9.1
2017-Jun-28 07:00N 58°37' E 021°21'5 9.2
2017-Jun-28 06:30N 58°32' E 021°21'5 9.1
2017-Jun-28 06:00N 58°28' E 021°22'5 9.2
2017-Jun-28 05:30N 58°23' E 021°22'123 3.7
2017-Jun-26 20:41N 58°38' E 017°28'3 8.6
2017-Jun-26 20:20N 58°39' E 017°23'3 8.7
2017-Jun-26 19:58N 58°40' E 017°17'4 8.4
2017-Jun-26 19:30N 58°41' E 017°10'1 0.0
2017-Jun-25 22:12N 58°40' E 017°09'1 3.6
2017-Jun-25 21:58N 58°41' E 017°10'51 7.4
2017-Jun-25 15:04N 59°09' E 018°32'1 9.0
2017-Jun-25 15:00N 59°10' E 018°33'10 8.8
2017-Jun-25 13:51N 59°18' E 018°45'3 8.9
2017-Jun-25 13:31N 59°20' E 018°48'5 9.1
2017-Jun-25 13:01N 59°24' E 018°53'4 8.9
2017-Jun-25 12:31N 59°27' E 018°59'4 8.9
2017-Jun-25 12:01N 59°30' E 019°05'4 8.8
2017-Jun-25 11:31N 59°35' E 019°08'4 9.0
2017-Jun-25 11:01N 59°39' E 019°10'4 8.9
2017-Jun-25 10:31N 59°44' E 019°10'4 8.9
2017-Jun-25 10:01N 59°45' E 019°18'4 9.0
2017-Jun-25 09:31N 59°48' E 019°26'4 8.8
2017-Jun-25 09:00N 59°50' E 019°34'4 8.8
2017-Jun-25 08:31N 59°52' E 019°41'5 9.0
2017-Jun-25 08:01N 59°54' E 019°49'5 9.1
2017-Jun-25 07:30N 59°57' E 019°57'4 9.0
2017-Jun-25 07:00N 59°58' E 020°05'4 8.8
2017-Jun-25 06:31N 59°59' E 020°14'5 9.2
2017-Jun-25 06:01N 60°03' E 020°20'4 7.9
2017-Jun-25 05:30N 60°05' E 020°26'4 8.4
2017-Jun-25 05:01N 60°07' E 020°33'4 8.4
2017-Jun-25 04:31N 60°06' E 020°41'5 9.2
2017-Jun-25 04:00N 60°05' E 020°50'5 9.3
2017-Jun-25 03:31N 60°02' E 020°57'5 9.0
2017-Jun-25 03:01N 60°00' E 021°06'5 9.4
2017-Jun-25 02:30N 59°57' E 021°12'5 9.2
2017-Jun-25 02:01N 59°53' E 021°19'4 8.8
2017-Jun-25 01:31N 59°51' E 021°27'5 9.2
2017-Jun-25 01:00N 59°51' E 021°36'5 9.1
2017-Jun-25 00:31N 59°52' E 021°45'5 9.2
2017-Jun-25 00:00N 59°52' E 021°54'5 9.3
2017-Jun-24 23:31N 59°53' E 022°03'5 9.3
2017-Jun-24 23:01N 59°53' E 022°12'5 9.4
2017-Jun-24 22:31N 59°53' E 022°22'4 8.6
2017-Jun-24 22:01N 59°54' E 022°30'5 9.0
2017-Jun-24 21:30N 59°55' E 022°39'5 9.5
2017-Jun-24 21:01N 59°53' E 022°48'4 7.5
2017-Jun-24 20:31N 59°50' E 022°52'3 6.9
2017-Jun-24 20:01N 59°47' E 022°56'4 8.1
2017-Jun-24 19:31N 59°45' E 023°03'4 7.5
2017-Jun-24 19:00N 59°42' E 023°08'3 6.4
2017-Jun-24 18:31N 59°41' E 023°14'3 6.8
2017-Jun-24 18:01N 59°42' E 023°21'4 8.1
2017-Jun-24 17:31N 59°43' E 023°28'4 8.7
2017-Jun-24 17:01N 59°44' E 023°37'4 8.9
2017-Jun-24 16:31N 59°45' E 023°45'5 9.1
2017-Jun-24 16:00N 59°47' E 023°53'5 9.1
2017-Jun-24 15:31N 59°48' E 024°02'5 9.1
2017-Jun-24 15:01N 59°51' E 024°09'9 8.9
2017-Jun-24 14:00N 59°59' E 024°17'4 8.5
2017-Jun-24 13:30N 60°03' E 024°21'2 3.5
2017-Jun-24 12:53N 60°05' E 024°23'0 0.0
2017-Jun-24 12:29N 60°05' E 024°23'0 0.0
2017-Jun-24 11:59N 60°05' E 024°23'0 0.0
2017-Jun-24 11:29N 60°05' E 024°23'0 0.0
2017-Jun-24 10:59N 60°05' E 024°23'0 0.0
2017-Jun-24 10:29N 60°05' E 024°23'0 0.0
2017-Jun-24 09:59N 60°05' E 024°23'0 0.0
2017-Jun-24 09:29N 60°05' E 024°23'0 0.0
2017-Jun-24 08:59N 60°05' E 024°23'0 0.0
2017-Jun-24 08:23N 60°05' E 024°23'0 0.0
2017-Jun-24 07:59N 60°05' E 024°23'0 0.0
2017-Jun-24 07:29N 60°05' E 024°23'0 0.0
2017-Jun-24 06:59N 60°05' E 024°23'0 0.0
2017-Jun-24 06:29N 60°05' E 024°23'0 0.0
2017-Jun-24 05:59N 60°05' E 024°23'0 0.0
2017-Jun-24 05:29N 60°05' E 024°23'0 0.0
2017-Jun-24 04:59N 60°05' E 024°23'0 0.0
2017-Jun-24 04:29N 60°05' E 024°23'0 0.0
2017-Jun-24 03:59N 60°05' E 024°23'0 0.0
2017-Jun-24 03:29N 60°05' E 024°23'0 0.0
2017-Jun-24 02:59N 60°05' E 024°23'0 0.0
2017-Jun-24 02:29N 60°05' E 024°23'0 0.0
2017-Jun-24 01:59N 60°05' E 024°23'0 0.0
2017-Jun-24 01:29N 60°05' E 024°23'0 0.0
2017-Jun-24 00:59N 60°05' E 024°23'0 0.0
2017-Jun-24 00:29N 60°05' E 024°23'0 0.0
2017-Jun-23 23:59N 60°05' E 024°23'0 0.0
2017-Jun-23 23:29N 60°05' E 024°23'0 0.0
2017-Jun-23 22:59N 60°05' E 024°23'0 0.0
2017-Jun-23 22:29N 60°05' E 024°23'0 0.0
2017-Jun-23 21:59N 60°05' E 024°23'0 0.0
2017-Jun-23 21:29N 60°05' E 024°23'0 0.0
2017-Jun-23 20:59N 60°05' E 024°23'0 0.0
2017-Jun-23 20:29N 60°05' E 024°23'0 0.0
2017-Jun-23 19:59N 60°05' E 024°23'0 0.0
2017-Jun-23 19:29N 60°05' E 024°23'0 0.0
2017-Jun-23 18:59N 60°05' E 024°23'0 0.0
2017-Jun-23 18:29N 60°05' E 024°23'0 0.0
2017-Jun-23 17:59N 60°05' E 024°23'0 0.0
2017-Jun-23 17:29N 60°05' E 024°23'0 0.0
2017-Jun-23 16:59N 60°05' E 024°23'0 0.0
2017-Jun-23 16:29N 60°05' E 024°23'0 0.0
2017-Jun-23 15:59N 60°05' E 024°23'0 0.0
2017-Jun-23 15:28N 60°05' E 024°23'0 0.0
2017-Jun-23 14:58N 60°05' E 024°23'0 0.0
2017-Jun-23 13:58N 60°05' E 024°23'0 0.0
2017-Jun-23 13:28N 60°05' E 024°23'0 0.0
2017-Jun-23 12:58N 60°05' E 024°23'0 0.0
2017-Jun-23 12:25N 60°05' E 024°23'0 0.0
2017-Jun-23 11:58N 60°05' E 024°23'0 0.0
2017-Jun-23 11:28N 60°05' E 024°23'0 0.0
2017-Jun-23 10:58N 60°05' E 024°23'0 0.0
2017-Jun-23 10:28N 60°05' E 024°23'0 0.0
2017-Jun-23 09:58N 60°05' E 024°23'0 0.0
2017-Jun-23 09:28N 60°05' E 024°23'0 0.0
2017-Jun-23 08:58N 60°05' E 024°23'0 0.0
2017-Jun-23 08:28N 60°05' E 024°23'0 0.0
2017-Jun-23 07:58N 60°05' E 024°23'0 0.0
2017-Jun-23 07:28N 60°05' E 024°23'0 0.0
2017-Jun-23 06:58N 60°05' E 024°23'0 0.0
2017-Jun-23 06:28N 60°05' E 024°23'0 0.0
2017-Jun-23 05:55N 60°05' E 024°23'0 0.0
2017-Jun-23 05:28N 60°05' E 024°23'0 0.0
2017-Jun-23 04:55N 60°05' E 024°23'0 0.0
2017-Jun-23 04:28N 60°05' E 024°23'0 0.0
2017-Jun-23 03:58N 60°05' E 024°23'0 0.0
2017-Jun-23 03:28N 60°05' E 024°23'0 0.0
2017-Jun-23 02:55N 60°05' E 024°23'0 0.0
2017-Jun-23 02:28N 60°05' E 024°23'0 0.0
2017-Jun-23 01:58N 60°05' E 024°23'0 0.0
2017-Jun-23 01:28N 60°05' E 024°23'0 0.0
2017-Jun-23 00:58N 60°05' E 024°23'0 0.0
2017-Jun-23 00:28N 60°05' E 024°23'0 0.0
2017-Jun-22 23:58N 60°05' E 024°23'0 0.0
2017-Jun-22 23:28N 60°05' E 024°23'0 0.0
2017-Jun-22 22:58N 60°05' E 024°23'0 0.0
2017-Jun-22 22:28N 60°05' E 024°23'0 0.0
2017-Jun-22 21:58N 60°05' E 024°23'0 0.0
2017-Jun-22 21:22N 60°05' E 024°23'0 0.0
2017-Jun-22 20:58N 60°05' E 024°23'0 0.0
2017-Jun-22 20:28N 60°05' E 024°23'0 0.0
2017-Jun-22 19:55N 60°05' E 024°23'0 0.0
2017-Jun-22 19:28N 60°05' E 024°23'0 0.0
2017-Jun-22 18:58N 60°05' E 024°23'0 0.0
2017-Jun-22 18:28N 60°05' E 024°23'0 0.0
2017-Jun-22 17:58N 60°05' E 024°23'0 0.0
2017-Jun-22 17:28N 60°05' E 024°23'0 0.0
2017-Jun-22 16:58N 60°05' E 024°23'0 0.0
2017-Jun-22 16:28N 60°05' E 024°23'0 0.0
2017-Jun-22 15:58N 60°05' E 024°23'0 0.0
2017-Jun-22 15:28N 60°05' E 024°23'0 0.0
2017-Jun-22 14:58N 60°05' E 024°23'0 0.0
2017-Jun-22 13:58N 60°05' E 024°23'0 0.0
2017-Jun-22 13:28N 60°05' E 024°23'0 0.0
2017-Jun-22 12:58N 60°05' E 024°23'0 0.0
2017-Jun-22 12:28N 60°05' E 024°23'0 0.0
2017-Jun-22 11:58N 60°05' E 024°23'0 0.0
2017-Jun-22 11:28N 60°05' E 024°23'0 0.0
2017-Jun-22 10:58N 60°05' E 024°23'0 0.0
2017-Jun-22 10:28N 60°05' E 024°23'0 0.0
2017-Jun-22 09:58N 60°05' E 024°23'0 0.0
2017-Jun-22 09:28N 60°05' E 024°23'0 0.0
2017-Jun-22 08:58N 60°05' E 024°23'0 0.0
2017-Jun-22 08:28N 60°05' E 024°23'0 0.0
2017-Jun-22 07:58N 60°05' E 024°23'0 0.0
2017-Jun-22 07:28N 60°05' E 024°23'0 0.0
2017-Jun-22 06:58N 60°05' E 024°23'0 0.0
2017-Jun-22 06:31N 60°05' E 024°23'0 0.0
2017-Jun-22 05:58N 60°05' E 024°23'0 0.0
2017-Jun-22 05:31N 60°05' E 024°23'0 0.0
2017-Jun-22 05:01N 60°05' E 024°23'0 0.0
2017-Jun-22 04:30N 60°05' E 024°23'0 0.0
2017-Jun-22 04:00N 60°05' E 024°23'0 0.0
2017-Jun-22 03:30N 60°05' E 024°23'0 0.0
2017-Jun-22 03:00N 60°05' E 024°23'0 0.0
2017-Jun-22 02:30N 60°05' E 024°23'0 0.0
2017-Jun-22 02:00N 60°05' E 024°23'0 0.0
2017-Jun-22 01:30N 60°05' E 024°23'0 0.0
2017-Jun-22 01:00N 60°05' E 024°23'0 0.0
2017-Jun-22 00:30N 60°05' E 024°23'0 0.0
2017-Jun-22 00:00N 60°05' E 024°23'0 0.0
2017-Jun-21 23:30N 60°05' E 024°23'0 0.0
2017-Jun-21 23:00N 60°05' E 024°23'0 0.0
2017-Jun-21 22:30N 60°05' E 024°23'0 0.0
2017-Jun-21 22:00N 60°05' E 024°23'0 0.0
2017-Jun-21 21:27N 60°05' E 024°23'0 0.0
2017-Jun-21 20:58N 60°05' E 024°23'0 0.0
2017-Jun-21 20:30N 60°05' E 024°23'0 0.0
2017-Jun-21 20:00N 60°05' E 024°23'0 0.0
2017-Jun-21 19:30N 60°05' E 024°23'0 0.0
2017-Jun-21 19:00N 60°05' E 024°23'0 0.0
2017-Jun-21 18:27N 60°05' E 024°23'0 0.0
2017-Jun-21 18:00N 60°05' E 024°23'0 0.0
2017-Jun-21 17:30N 60°05' E 024°23'0 0.0
2017-Jun-21 17:00N 60°05' E 024°23'0 0.1
2017-Jun-21 16:30N 60°05' E 024°23'0 0.0
2017-Jun-21 16:00N 60°05' E 024°23'0 0.0
2017-Jun-21 15:30N 60°05' E 024°23'0 0.0
2017-Jun-21 14:57N 60°05' E 024°23'0 0.0
2017-Jun-21 14:30N 60°05' E 024°23'0 0.0
2017-Jun-21 13:27N 60°05' E 024°23'0 0.0
2017-Jun-21 13:00N 60°05' E 024°23'0 0.0
2017-Jun-21 12:30N 60°05' E 024°23'0 0.0
2017-Jun-21 12:00N 60°05' E 024°23'0 0.0
2017-Jun-21 11:30N 60°05' E 024°23'0 0.0
2017-Jun-21 11:00N 60°05' E 024°23'0 0.0
2017-Jun-21 10:30N 60°05' E 024°23'0 0.0
2017-Jun-21 10:00N 60°05' E 024°23'0 0.0
2017-Jun-21 09:30N 60°05' E 024°23'0 0.0
2017-Jun-21 09:00N 60°05' E 024°23'0 0.0
2017-Jun-21 08:30N 60°05' E 024°23'0 0.0
2017-Jun-21 08:00N 60°05' E 024°23'0 0.0
2017-Jun-21 07:30N 60°05' E 024°23'0 0.0
2017-Jun-21 07:00N 60°05' E 024°23'0 0.0
2017-Jun-21 06:30N 60°05' E 024°23'0 0.0
2017-Jun-21 06:00N 60°05' E 024°23'0 0.0
2017-Jun-21 05:30N 60°05' E 024°23'0 0.0
2017-Jun-21 05:00N 60°05' E 024°23'0 0.0
2017-Jun-21 04:30N 60°05' E 024°23'0 0.0
2017-Jun-21 04:00N 60°05' E 024°23'0 0.0
2017-Jun-21 03:30N 60°05' E 024°23'0 0.0
2017-Jun-21 03:00N 60°05' E 024°23'0 0.0
2017-Jun-21 02:30N 60°05' E 024°23'0 0.0
2017-Jun-21 02:00N 60°05' E 024°23'0 0.0
2017-Jun-21 01:30N 60°05' E 024°23'0 0.0
2017-Jun-21 01:00N 60°05' E 024°23'0 0.0
2017-Jun-21 00:30N 60°05' E 024°23'0 0.0
2017-Jun-21 00:00N 60°05' E 024°23'0 0.0
2017-Jun-20 23:30N 60°05' E 024°23'0 0.0
2017-Jun-20 23:00N 60°05' E 024°23'0 0.0
2017-Jun-20 22:30N 60°05' E 024°23'0 0.0
2017-Jun-20 22:00N 60°05' E 024°23'0 0.0
2017-Jun-20 21:30N 60°05' E 024°23'0 0.0
2017-Jun-20 21:00N 60°05' E 024°23'0 0.0
2017-Jun-20 20:30N 60°05' E 024°23'0 0.0
2017-Jun-20 20:00N 60°05' E 024°23'0 0.0
2017-Jun-20 19:30N 60°05' E 024°23'0 0.0
2017-Jun-20 19:00N 60°05' E 024°23'0 0.0
2017-Jun-20 18:30N 60°05' E 024°23'0 0.0
2017-Jun-20 17:59N 60°05' E 024°23'0 0.0
2017-Jun-20 17:29N 60°05' E 024°23'0 0.0
2017-Jun-20 16:59N 60°05' E 024°23'0 0.1
2017-Jun-20 16:30N 60°05' E 024°22'3 6.8
2017-Jun-20 16:00N 60°02' E 024°19'4 8.4
2017-Jun-20 15:30N 59°58' E 024°16'4 7.4
2017-Jun-20 15:00N 59°55' E 024°13'3 6.8
2017-Jun-20 14:30N 59°52' E 024°10'7 6.7
2017-Jun-20 13:30N 59°46' E 024°01'3 7.0
2017-Jun-20 13:00N 59°44' E 023°57'3 6.9
2017-Jun-20 12:30N 59°41' E 023°53'3 6.9
2017-Jun-20 12:00N 59°38' E 023°48'4 7.1
2017-Jun-20 11:30N 59°36' E 023°44'4 7.2
2017-Jun-20 11:00N 59°33' E 023°39'4 7.6
2017-Jun-20 10:30N 59°30' E 023°35'4 7.5
2017-Jun-20 10:00N 59°27' E 023°30'4 7.4
2017-Jun-20 09:30N 59°24' E 023°26'4 7.8
2017-Jun-20 09:00N 59°21' E 023°21'4 7.8
2017-Jun-20 08:30N 59°18' E 023°16'4 7.9
2017-Jun-20 08:00N 59°15' E 023°11'4 8.1
2017-Jun-20 07:30N 59°12' E 023°06'4 8.1
2017-Jun-20 07:00N 59°08' E 023°03'4 8.3
2017-Jun-20 06:30N 59°04' E 023°03'40 8.5
2017-Jun-20 01:50N 58°27' E 023°32'3 8.8
2017-Jun-20 01:30N 58°25' E 023°34'4 8.8
2017-Jun-20 01:00N 58°21' E 023°37'4 8.8
2017-Jun-20 00:30N 58°16' E 023°41'5 8.9
2017-Jun-19 23:58N 58°12' E 023°44'4 8.8
2017-Jun-19 23:29N 58°08' E 023°47'4 8.8
2017-Jun-19 23:00N 58°04' E 023°49'28 1.6
2017-Jun-19 06:00N 58°23' E 024°29'0 0.0
2017-Jun-19 05:27N 58°23' E 024°29'0 0.0
2017-Jun-19 04:57N 58°23' E 024°29'0 0.0
2017-Jun-19 04:30N 58°23' E 024°29'0 0.0
2017-Jun-19 04:00N 58°23' E 024°29'0 0.0
2017-Jun-19 03:30N 58°23' E 024°29'0 0.0
2017-Jun-19 03:00N 58°23' E 024°29'0 0.0
2017-Jun-19 02:30N 58°23' E 024°29'  

Dump ship's entire track history